CYVM/YVM METAR and TAF weather

Enter ICAO airport designator
Station Type Date Time Source
CYVM METAR 2022/06/25 22:36 UTC NOAA

CYVM 252236Z AUTO 03004KT 6SM -RA BR OVC004 01/00 A2970 RMK PCPN 0.5MM PAST HR SLP059


Station Type Date Time Source
CYVM Decoded METAR 2022/06/25 22:36 UTC NOAA

Broughton Island Airport, Canada (CYVM) 67-33N 064-02W
Jun 25, 2022 - 06:36 PM EDT / 2022.06.25 2236 UTC
Wind: from the NNE (030 degrees) at 5 MPH (4 KT):0
Visibility: 6 mile(s):0
Sky conditions: overcast
Weather: light rain; mist
Temperature: 33 F (1 C)
Windchill: 28 F (-2 C):1
Dew Point: 32 F (0 C)
Relative Humidity: 93%
Pressure (altimeter): 29.7 in. Hg (1005 hPa)
ob: CYVM 252236Z AUTO 03004KT 6SM -RA BR OVC004 01/00 A2970 RMK PCPN 0.5MM PAST HR SLP059
cycle: 22

Station Type Date Time Source
CYVM TAF 2022/06/25 22:18 UTC NOAA

TAF
AMD TAF
AMD CYVM 252215Z 2522/2607 06005KT 3SM -RA BR OVC006
TEMPO 2522/2524 6SM BR SCT006 OVC020
FM260000 04010G20KT 2SM -SN BR OVC006
TEMPO 2600/2607 6SM -SNRA SCT006 OVC020 PROB30 2600/2607 3SM -FZRA BR
RMK NXT FCST BY 260100Z

Example: see airport list